• Join FlightAware (Why Join?)
  • Login
  • US Flag 
02:20AM EDT


 

Airport Tracker/Info


-or-


 

Live Flight TrackerFlight Track Log ✈ BEE2821 ✈ 23-Apr-2013 ✈ EFHK / HEL - EDDF / FRA

Flight Track Log - Related Links

Times and Time Zones

All times are in EDT time to prevent confusion due to time zone crossing. See the BEE2821 flight status page for this flight to view local times or setup timezone preferences in your user account.

Time Position Orientation Groundspeed Altitude Reporting Facility
EDT Latitude Longitude Course Direction KTS MPH feet Rate Location/Type
01:38AM 59.9352 24.0819 229° Southwest  Level Estimated
01:39AM 59.8582 23.9080 229° Southwest  Level Estimated
01:40AM 59.7808 23.7350 228° Southwest  Level Estimated
01:41AM 59.7033 23.5627 228° Southwest  Level Estimated
01:42AM 59.6255 23.3913 228° Southwest  Level Estimated
01:43AM 59.5475 23.2206 228° Southwest  Level Estimated
01:44AM 59.4693 23.0508 228° Southwest  Level Estimated
01:45AM 59.3909 22.8817 228° Southwest  Level Estimated
01:46AM 59.3122 22.7134 228° Southwest  Level Estimated
01:47AM 59.2333 22.5459 227° Southwest  Level Estimated
01:48AM 59.1543 22.3791 227° Southwest  Level Estimated
01:49AM 59.0750 22.2131 227° Southwest  Level Estimated
01:50AM 58.9954 22.0479 227° Southwest  Level Estimated
01:51AM 58.9157 21.8835 227° Southwest  Level Estimated
01:52AM 58.8358 21.7198 227° Southwest  Level Estimated
01:53AM 58.7557 21.5569 227° Southwest  Level Estimated
01:54AM 58.6753 21.3947 226° Southwest  Level Estimated
01:55AM 58.5948 21.2332 226° Southwest  Level Estimated
01:56AM 58.5141 21.0725 226° Southwest  Level Estimated
01:57AM 58.4331 20.9126 226° Southwest  Level Estimated
01:58AM 58.3520 20.7534 226° Southwest  Level Estimated
01:59AM 58.2706 20.5949 226° Southwest  Level Estimated
02:00AM 58.1891 20.4371 226° Southwest  Level Estimated
02:01AM 58.1074 20.2801 225° Southwest  Level Estimated
02:02AM 58.0255 20.1238 225° Southwest  Level Estimated
02:03AM 57.9434 19.9681 225° Southwest  Level Estimated
02:04AM 57.8611 19.8132 225° Southwest  Level Estimated
02:05AM 57.7786 19.6590 225° Southwest  Level Estimated
02:06AM 57.6959 19.5056 225° Southwest  Level Estimated
02:07AM 57.6131 19.3528 225° Southwest  Level Estimated
02:08AM 57.5300 19.2007 225° Southwest  Level Estimated
02:09AM 57.4468 19.0493 224° Southwest  Level Estimated
02:10AM 57.3634 18.8986 224° Southwest  Level Estimated
02:11AM 57.2798 18.7486 224° Southwest  Level Estimated
02:12AM 57.1961 18.5992 224° Southwest  Level Estimated
02:13AM 57.1121 18.4506 224° Southwest  Level Estimated
02:14AM 57.0280 18.3026 224° Southwest  Level Estimated
02:15AM 56.9438 18.1552 224° Southwest  Level Estimated
02:16AM 56.8593 18.0086 224° Southwest  Level Estimated
02:17AM 56.7747 17.8626 223° Southwest  Level Estimated
02:18AM 56.6899 17.7172 223° Southwest  Level Estimated
02:19AM 56.6049 17.5725 223° Southwest  Level Estimated
02:20AM 56.5198 17.4285 223° Southwest  Level Estimated
02:21AM 56.4345 17.2851 223° Southwest  Level Estimated
02:22AM 56.3490 17.1424 223° Southwest  Level Estimated
02:23AM 56.2634 17.0003 223° Southwest  Level Estimated
02:24AM 56.1776 16.8588 223° Southwest  Level Estimated
02:25AM 56.0917 16.7180 222° Southwest  Level Estimated
02:26AM 56.0056 16.5777 222° Southwest  Level Estimated
02:27AM 55.9193 16.4381 222° Southwest  Level Estimated
02:28AM 55.8329 16.2992 222° Southwest  Level Estimated
02:29AM 55.7463 16.1608 222° Southwest  Level Estimated
02:30AM 55.6595 16.0231 222° Southwest  Level Estimated
02:31AM 55.5727 15.8860 222° Southwest  Level Estimated
02:32AM 55.4856 15.7494 222° Southwest  Level Estimated
02:33AM 55.3984 15.6135 222° Southwest  Level Estimated
02:34AM 55.3111 15.4782 221° Southwest  Level Estimated
02:35AM 55.2236 15.3434 221° Southwest  Level Estimated
02:36AM 55.1360 15.2093 221° Southwest  Level Estimated
02:37AM 55.0482 15.0758 221° Southwest  Level Estimated
02:38AM 54.9603 14.9428 221° Southwest  Level Estimated
02:39AM 54.8722 14.8104 221° Southwest  Level Estimated
02:40AM 54.7840 14.6786 221° Southwest  Level Estimated
02:41AM 54.6956 14.5474 221° Southwest  Level Estimated
02:42AM 54.6071 14.4167 221° Southwest  Level Estimated
02:43AM 54.5185 14.2866 220° Southwest  Level Estimated
02:44AM 54.4297 14.1571 220° Southwest  Level Estimated
02:45AM 54.3408 14.0281 220° Southwest  Level Estimated
02:46AM 54.2517 13.8997 220° Southwest  Level Estimated
02:47AM 54.1625 13.7719 220° Southwest  Level Estimated
02:48AM 54.0732 13.6446 220° Southwest  Level Estimated
02:49AM 53.9837 13.5178 220° Southwest  Level Estimated
02:50AM 53.8941 13.3916 220° Southwest  Level Estimated
02:51AM 53.8044 13.2659 220° Southwest  Level Estimated
02:52AM 53.7146 13.1407 220° Southwest  Level Estimated
02:53AM 53.6246 13.0162 219° Southwest  Level Estimated
02:54AM 53.5345 12.8921 219° Southwest  Level Estimated
02:55AM 53.4442 12.7685 219° Southwest  Level Estimated
02:56AM 53.3539 12.6455 219° Southwest  Level Estimated
02:57AM 53.2634 12.5230 219° Southwest  Level Estimated
02:58AM 53.1728 12.4010 219° Southwest  Level Estimated
02:59AM 53.0820 12.2796 219° Southwest  Level Estimated
03:00AM 52.9911 12.1586 219° Southwest  Level Estimated
03:01AM 52.9002 12.0381 219° Southwest  Level Estimated
03:02AM 52.8091 11.9182 219° Southwest  Level Estimated
03:03AM 52.7178 11.7988 218° Southwest  Level Estimated
03:04AM 52.6265 11.6798 218° Southwest  Level Estimated
03:05AM 52.5350 11.5614 218° Southwest  Level Estimated
03:06AM 52.4434 11.4434 218° Southwest  Level Estimated
03:07AM 52.3517 11.3259 218° Southwest  Level Estimated
03:08AM 52.2599 11.2090 218° Southwest  Level Estimated
03:09AM 52.1680 11.0925 218° Southwest  Level Estimated
03:10AM 52.0759 10.9765 218° Southwest  Level Estimated
03:11AM 51.9837 10.8609 218° Southwest  Level Estimated
03:12AM 51.8915 10.7459 218° Southwest  Level Estimated
03:13AM 51.7991 10.6313 218° Southwest  Level Estimated
03:14AM 51.7066 10.5172 217° Southwest  Level Estimated
03:15AM 51.6140 10.4035 217° Southwest  Level Estimated
03:16AM 51.5213 10.2903 217° Southwest  Level Estimated
03:17AM 51.4284 10.1776 217° Southwest  Level Estimated
03:18AM 51.3355 10.0653 217° Southwest  Level Estimated
03:19AM 51.2425 9.9535 217° Southwest  Level Estimated
03:20AM 51.1493 9.8421 217° Southwest  Level Estimated
03:21AM 51.0561 9.7312 217° Southwest  Level Estimated
03:22AM 50.9627 9.6207 217° Southwest  Level Estimated
03:23AM 50.8693 9.5107 217° Southwest  Level Estimated
03:24AM 50.7757 9.4011 217° Southwest  Level Estimated
03:25AM 50.6820 9.2920 216° Southwest  Level Estimated
03:26AM 50.5883 9.1833 216° Southwest  Level Estimated
03:27AM 50.4944 9.0750 216° Southwest  Level Estimated
03:28AM 50.4004 8.9671 216° Southwest  Level Estimated
03:29AM 50.3064 8.8597 216° Southwest  Level Estimated
03:30AM 50.2122 8.7527 216° Southwest  Level Estimated
03:31AM 50.1179 8.6461 216° Southwest  Level Estimated
03:32AM 50.0264 8.5431 216° Southwest  Level Estimated
03:33AM 50.0264 8.5431 73° East  Level Estimated
03:34AM 50.0264 8.5431 73° East  Level Estimated
03:35AM 50.0264 8.5431 73° East  Level Estimated
03:36AM 50.0264 8.5431 73° East  Level Estimated
03:37AM 50.0264 8.5431 73° East  Level Estimated
03:38AM 50.0264 8.5431 73° East  Level Estimated
03:39AM 50.0264 8.5431 73° East  Level Estimated
03:40AM 50.0264 8.5431 73° East  Level Estimated
03:41AM 50.0264 8.5431 73° East  Level Estimated
03:42AM 50.0264 8.5431 73° East  Level Estimated
03:43AM 50.0264 8.5431 73° East  Level Estimated
03:44AM 50.0264 8.5431 73° East  Level Estimated
03:45AM 50.0264 8.5431 73° East  Level Estimated
03:46AM 50.0264 8.5431 73° East  Level Estimated
03:47AM 50.0264 8.5431 73° East  Level Estimated
03:48AM 50.0264 8.5431 73° East  Level Estimated